Terminal Aerodrome Forecast
Issued by NWS

Home | Current Version | Previous Version | Text Only | Print | Product List | Glossary On
Versions: 1 2 3 4 5 6 7 8 9 10 11 12 13
696
FTUS41 KBTV 012320
TAFMSS
TAF
KMSS 012320Z 0200/0224 06007KT 3SM -SHRA BR BKN015 OVC030
      TEMPO 0200/0204 BKN006
     FM020400 VRB02KT 3SM -DZ BR SCT008 OVC015
     FM021400 05006KT 4SM -RA BR SCT008 OVC010=

USA.gov is the U.S. government's official web portal to all federal, state and local government web resources and services.